createdAt,value
2022-11-30T00:00:22.019Z,100705.97
2022-11-30T00:02:53.867Z,100710.34
2022-11-30T00:05:20.970Z,100709.47
2022-11-30T00:07:47.421Z,100711.19
2022-11-30T00:10:14.049Z,100709.41
2022-11-30T00:12:43.343Z,100703.22
2022-11-30T00:15:14.716Z,100698.00
2022-11-30T00:17:41.368Z,100690.97
2022-11-30T00:20:08.920Z,100687.47
2022-11-30T00:22:35.737Z,100696.25
2022-11-30T00:25:04.584Z,100701.56
2022-11-30T00:27:32.504Z,100699.75
2022-11-30T00:29:59.819Z,100698.94
2022-11-30T00:32:29.027Z,100692.81
2022-11-30T00:34:55.716Z,100697.22
2022-11-30T00:37:22.417Z,100693.69
2022-11-30T00:39:48.835Z,100697.22
2022-11-30T00:42:15.223Z,100703.41
2022-11-30T00:44:41.719Z,100701.69
2022-11-30T00:47:09.125Z,100692.88
2022-11-30T00:49:35.536Z,100697.28
2022-11-30T00:52:02.096Z,100697.28
2022-11-30T00:54:28.488Z,100699.00
2022-11-30T00:56:54.882Z,100689.34
2022-11-30T00:59:21.314Z,100694.63
2022-11-30T01:01:47.846Z,100692.88
2022-11-30T01:04:14.231Z,100698.09
2022-11-30T01:06:40.596Z,100698.09
2022-11-30T01:09:07.144Z,100697.22
2022-11-30T01:11:33.577Z,100696.34
2022-11-30T01:14:00.289Z,100699.91
2022-11-30T01:16:29.819Z,100699.84
2022-11-30T01:18:56.740Z,100694.59
2022-11-30T01:21:25.503Z,100695.47
2022-11-30T01:23:52.511Z,100694.59
2022-11-30T01:26:19.699Z,100695.50
2022-11-30T01:28:54.128Z,100702.56
2022-11-30T01:31:21.877Z,100696.38
2022-11-30T01:33:52.821Z,100696.38
2022-11-30T01:36:22.031Z,100699.91
2022-11-30T01:38:53.988Z,100696.34
2022-11-30T01:41:29.235Z,100695.44
2022-11-30T01:44:20.269Z,100690.19
2022-11-30T01:46:53.887Z,100694.56
2022-11-30T01:49:30.377Z,100698.91
2022-11-30T01:52:07.878Z,100698.91
2022-11-30T01:54:47.970Z,100704.25
2022-11-30T01:57:22.866Z,100698.97
2022-11-30T01:59:52.954Z,100697.19
2022-11-30T02:02:27.930Z,100694.50
2022-11-30T02:04:54.717Z,100692.75
2022-11-30T02:07:21.388Z,100695.41
2022-11-30T02:09:47.797Z,100697.13
2022-11-30T02:12:36.449Z,100692.78
2022-11-30T02:15:11.234Z,100691.00
2022-11-30T02:18:02.732Z,100695.41
2022-11-30T02:20:47.190Z,100698.91
2022-11-30T02:23:40.974Z,100699.84
2022-11-30T02:26:26.043Z,100700.66
2022-11-30T02:29:20.374Z,100700.72
2022-11-30T02:31:55.735Z,100697.19
2022-11-30T02:34:27.020Z,100693.69
2022-11-30T02:36:55.232Z,100697.22
2022-11-30T02:39:22.308Z,100699.84
2022-11-30T02:41:48.713Z,100700.81
2022-11-30T02:44:16.376Z,100698.06
2022-11-30T02:47:01.964Z,100697.13
2022-11-30T02:49:41.016Z,100702.41
2022-11-30T02:52:10.140Z,100705.91
2022-11-30T02:54:36.803Z,100711.22
2022-11-30T02:57:03.268Z,100712.09
2022-11-30T02:59:29.883Z,100713.84
2022-11-30T03:01:56.506Z,100709.31
2022-11-30T03:04:22.968Z,100708.38
2022-11-30T03:06:49.378Z,100707.59
2022-11-30T03:09:15.764Z,100708.50
2022-11-30T03:11:42.164Z,100713.00
2022-11-30T03:14:08.557Z,100711.38
2022-11-30T03:16:36.444Z,100715.81
2022-11-30T03:19:02.977Z,100717.50
2022-11-30T03:21:29.519Z,100717.44
2022-11-30T03:23:55.856Z,100720.97
2022-11-30T03:26:22.227Z,100718.28
2022-11-30T03:28:48.568Z,100712.09
2022-11-30T03:31:15.284Z,100711.22
2022-11-30T03:33:42.252Z,100716.44
2022-11-30T03:36:10.799Z,100722.63
2022-11-30T03:38:38.039Z,100720.94
2022-11-30T03:41:15.148Z,100725.34
2022-11-30T03:43:42.261Z,100720.91
2022-11-30T03:46:09.145Z,100716.47
2022-11-30T03:48:40.972Z,100720.91
2022-11-30T03:51:08.404Z,100725.38
2022-11-30T03:53:34.807Z,100723.53
2022-11-30T03:56:03.472Z,100719.09
2022-11-30T03:58:30.116Z,100720.91
2022-11-30T04:01:14.604Z,100719.13
2022-11-30T04:03:41.916Z,100727.94
2022-11-30T04:06:10.031Z,100723.53
2022-11-30T04:08:37.536Z,100723.59
2022-11-30T04:11:04.991Z,100725.34
2022-11-30T04:13:33.095Z,100723.63
2022-11-30T04:15:59.855Z,100720.91
2022-11-30T04:18:28.713Z,100718.25
2022-11-30T04:20:56.504Z,100718.19
2022-11-30T04:23:24.320Z,100724.38
2022-11-30T04:25:51.891Z,100716.41
2022-11-30T04:28:19.370Z,100723.50
2022-11-30T04:30:46.578Z,100724.44
2022-11-30T04:33:14.942Z,100719.19
2022-11-30T04:35:45.734Z,100716.53
2022-11-30T04:38:12.289Z,100727.94
2022-11-30T04:40:40.711Z,100722.69
2022-11-30T04:43:07.798Z,100727.06
2022-11-30T04:45:35.725Z,100723.56
2022-11-30T04:48:03.849Z,100726.19
2022-11-30T04:50:30.276Z,100722.66
2022-11-30T04:52:56.929Z,100720.75
2022-11-30T04:55:23.783Z,100725.06
2022-11-30T04:57:50.403Z,100726.00
2022-11-30T05:00:18.200Z,100726.00
2022-11-30T05:02:50.560Z,100728.66
2022-11-30T05:05:18.791Z,100734.84
2022-11-30T05:07:49.753Z,100725.16
2022-11-30T05:10:16.449Z,100725.19
2022-11-30T05:12:42.868Z,100724.25
2022-11-30T05:15:09.878Z,100726.06
2022-11-30T05:17:36.287Z,100724.34
2022-11-30T05:20:02.893Z,100732.25
2022-11-30T05:22:29.265Z,100727.81
2022-11-30T05:24:55.669Z,100730.47
2022-11-30T05:27:22.811Z,100719.06
2022-11-30T05:29:49.362Z,100732.84
2022-11-30T05:32:15.755Z,100732.06
2022-11-30T05:34:50.761Z,100735.63
2022-11-30T05:37:18.507Z,100738.31
2022-11-30T05:39:44.920Z,100740.09
2022-11-30T05:42:11.441Z,100740.09
2022-11-30T05:44:37.780Z,100744.47
2022-11-30T05:47:04.272Z,100740.97
2022-11-30T05:49:30.641Z,100746.25
2022-11-30T05:51:56.962Z,100741.00
2022-11-30T05:54:23.362Z,100750.69
2022-11-30T05:56:54.482Z,100740.16
2022-11-30T05:59:21.592Z,100743.63
2022-11-30T06:01:48.148Z,100741.03
2022-11-30T06:04:14.745Z,100746.28
2022-11-30T06:06:41.136Z,100748.03
2022-11-30T06:09:07.589Z,100747.91
2022-11-30T06:11:34.173Z,100747.91
2022-11-30T06:14:00.631Z,100747.06
2022-11-30T06:16:27.039Z,100751.47
2022-11-30T06:18:53.548Z,100750.66
2022-11-30T06:21:24.424Z,100750.66
2022-11-30T06:23:51.445Z,100748.00
2022-11-30T06:26:17.778Z,100752.34
2022-11-30T06:28:48.158Z,100754.09
2022-11-30T06:31:15.587Z,100750.56
2022-11-30T06:33:42.080Z,100747.91
2022-11-30T06:36:08.759Z,100751.50
2022-11-30T06:38:35.223Z,100747.94
2022-11-30T06:41:06.672Z,100752.34
2022-11-30T06:43:35.597Z,100754.97
2022-11-30T06:46:03.724Z,100756.75
2022-11-30T06:48:30.664Z,100763.78
2022-11-30T06:50:58.481Z,100760.28
2022-11-30T06:53:25.290Z,100764.72
2022-11-30T06:55:52.460Z,100764.78
2022-11-30T06:58:18.911Z,100765.63
2022-11-30T07:00:45.754Z,100774.38
2022-11-30T07:03:12.668Z,100764.63
2022-11-30T07:05:43.755Z,100765.50
2022-11-30T07:08:11.145Z,100769.00
2022-11-30T07:10:46.384Z,100768.09
2022-11-30T07:13:15.139Z,100773.31
2022-11-30T07:15:42.328Z,100775.13
2022-11-30T07:18:09.908Z,100768.00
2022-11-30T07:20:37.599Z,100770.72
2022-11-30T07:23:22.566Z,100766.28
2022-11-30T07:26:06.373Z,100774.19
2022-11-30T07:28:38.823Z,100775.94
2022-11-30T07:31:21.728Z,100777.78
2022-11-30T07:33:49.440Z,100780.41
2022-11-30T07:36:17.616Z,100781.28
2022-11-30T07:38:44.848Z,100782.13
2022-11-30T07:41:11.705Z,100781.25
2022-11-30T07:43:38.200Z,100781.22
2022-11-30T07:46:05.198Z,100780.25
2022-11-30T07:48:31.849Z,100783.72
2022-11-30T07:51:06.484Z,100789.91
2022-11-30T07:53:33.332Z,100795.19
2022-11-30T07:56:04.829Z,100794.34
2022-11-30T07:58:31.822Z,100792.53
2022-11-30T08:01:06.627Z,100790.78
2022-11-30T08:03:36.836Z,100792.44
2022-11-30T08:06:15.303Z,100782.59
2022-11-30T08:08:44.843Z,100786.94
2022-11-30T08:11:14.276Z,100785.16
2022-11-30T08:13:41.109Z,100786.91
2022-11-30T08:16:10.780Z,100788.66
2022-11-30T08:18:37.180Z,100788.53
2022-11-30T08:21:06.204Z,100795.59
2022-11-30T08:23:35.845Z,100793.88
2022-11-30T08:26:06.856Z,100790.28
2022-11-30T08:28:37.124Z,100803.41
2022-11-30T08:31:07.293Z,100799.03
2022-11-30T08:33:34.985Z,100800.69
2022-11-30T08:36:15.584Z,100798.84
2022-11-30T08:38:43.359Z,100795.34
2022-11-30T08:41:12.962Z,100793.63
2022-11-30T08:43:39.943Z,100790.88
2022-11-30T08:46:27.867Z,100797.88
2022-11-30T08:49:12.503Z,100797.06
2022-11-30T08:52:15.363Z,100801.44
2022-11-30T08:54:28.187Z,100801.31
2022-11-30T08:56:54.512Z,100802.22
2022-11-30T08:59:20.987Z,100805.66
2022-11-30T09:01:47.389Z,100809.22
2022-11-30T09:04:13.799Z,100805.56
2022-11-30T09:06:40.196Z,100807.22
2022-11-30T09:09:06.562Z,100808.03
2022-11-30T09:11:34.021Z,100808.81
2022-11-30T09:14:04.011Z,100814.69
2022-11-30T09:16:30.448Z,100813.63
2022-11-30T09:18:57.064Z,100814.53
2022-11-30T09:21:25.606Z,100816.31
2022-11-30T09:23:57.991Z,100820.44
2022-11-30T09:26:25.385Z,100823.69
2022-11-30T09:28:53.589Z,100814.28
2022-11-30T09:31:22.489Z,100814.78
2022-11-30T09:33:49.416Z,100812.81
2022-11-30T09:36:18.466Z,100813.34
2022-11-30T09:38:44.884Z,100816.06
2022-11-30T09:41:29.546Z,100816.78
2022-11-30T09:44:03.698Z,100813.47
2022-11-30T09:46:51.542Z,100826.56
2022-11-30T09:49:27.372Z,100822.03
2022-11-30T09:51:58.521Z,100819.28
2022-11-30T09:54:39.615Z,100817.84
2022-11-30T09:57:36.931Z,100821.22
2022-11-30T10:00:14.908Z,100815.91
2022-11-30T10:02:42.023Z,100821.13
2022-11-30T10:05:17.348Z,100818.16
2022-11-30T10:08:04.935Z,100818.91
2022-11-30T10:10:56.520Z,100820.38
2022-11-30T10:13:53.165Z,100823.47
2022-11-30T10:16:45.343Z,100806.47
2022-11-30T10:19:23.870Z,100816.22
2022-11-30T10:22:03.237Z,100812.59
2022-11-30T10:24:41.749Z,100806.66
2022-11-30T10:27:18.160Z,100813.19
2022-11-30T10:29:44.632Z,100806.25
2022-11-30T10:32:20.617Z,100810.59
2022-11-30T10:34:57.972Z,100807.19
2022-11-30T10:37:35.504Z,100806.13
2022-11-30T10:40:23.990Z,100804.41
2022-11-30T10:43:03.999Z,100811.25
2022-11-30T10:45:32.128Z,100809.94
2022-11-30T10:48:17.447Z,100804.22
2022-11-30T10:50:44.170Z,100798.16
2022-11-30T10:53:11.895Z,100804.56
2022-11-30T10:56:00.033Z,100804.78
2022-11-30T10:58:56.091Z,100812.28
2022-11-30T11:01:32.584Z,100805.75
2022-11-30T11:04:19.134Z,100809.13
2022-11-30T11:06:55.452Z,100797.69
2022-11-30T11:09:30.927Z,100794.09
2022-11-30T11:12:00.158Z,100789.16
2022-11-30T11:14:28.144Z,100793.16
2022-11-30T11:17:04.895Z,100790.63
2022-11-30T11:19:38.467Z,100786.16
2022-11-30T11:22:06.683Z,100790.25
2022-11-30T11:24:34.212Z,100793.38
2022-11-30T11:27:00.976Z,100782.59
2022-11-30T11:29:37.831Z,100794.25
2022-11-30T11:32:22.541Z,100792.88
2022-11-30T11:34:51.300Z,100794.00
2022-11-30T11:37:26.199Z,100793.25
2022-11-30T11:40:05.860Z,100790.66
2022-11-30T11:42:36.912Z,100796.78
2022-11-30T11:45:04.139Z,100795.78
2022-11-30T11:47:40.555Z,100794.72
2022-11-30T11:50:13.075Z,100792.16
2022-11-30T11:52:39.496Z,100794.75
2022-11-30T11:55:14.219Z,100799.78
2022-11-30T11:57:54.478Z,100791.31
2022-11-30T12:00:25.257Z,100786.09
2022-11-30T12:03:00.741Z,100783.94
2022-11-30T12:05:32.127Z,100789.34
2022-11-30T12:08:15.606Z,100783.94
2022-11-30T12:10:52.315Z,100777.50
2022-11-30T12:13:25.212Z,100786.31
2022-11-30T12:15:58.505Z,100790.94
2022-11-30T12:18:38.131Z,100783.81
2022-11-30T12:21:16.080Z,100788.44
2022-11-30T12:24:03.301Z,100788.47
2022-11-30T12:26:39.654Z,100792.50
2022-11-30T12:29:20.939Z,100791.72
2022-11-30T12:32:03.396Z,100786.06
2022-11-30T12:34:32.416Z,100788.50
2022-11-30T12:37:10.500Z,100781.63
2022-11-30T12:39:49.289Z,100777.22
2022-11-30T12:42:26.805Z,100782.31
2022-11-30T12:45:08.912Z,100781.16
2022-11-30T12:47:47.352Z,100780.34
2022-11-30T12:50:45.619Z,100782.75
2022-11-30T12:53:38.587Z,100775.09
2022-11-30T12:56:20.501Z,100784.75
2022-11-30T12:59:23.887Z,100785.88
2022-11-30T13:02:19.433Z,100785.03
2022-11-30T13:04:59.751Z,100780.41
2022-11-30T13:07:34.800Z,100784.28
2022-11-30T13:10:16.424Z,100780.94
2022-11-30T13:12:47.572Z,100779.63
2022-11-30T13:15:20.448Z,100771.66
2022-11-30T13:17:49.646Z,100780.84
2022-11-30T13:20:50.563Z,100782.91
2022-11-30T13:23:38.080Z,100779.78
2022-11-30T13:26:27.845Z,100785.19
2022-11-30T13:29:31.639Z,100782.75
2022-11-30T13:32:56.709Z,100782.44
2022-11-30T13:35:28.966Z,100784.28
2022-11-30T13:41:08.439Z,100781.69
2022-11-30T13:43:47.810Z,100778.41
2022-11-30T13:46:18.452Z,100778.88
2022-11-30T13:48:45.725Z,100778.09
2022-11-30T13:51:13.191Z,100779.75
2022-11-30T13:53:40.236Z,100776.38
2022-11-30T13:56:34.231Z,100772.94
2022-11-30T13:59:32.968Z,100782.53
2022-11-30T14:02:42.353Z,100782.75
2022-11-30T14:05:17.737Z,100785.25
2022-11-30T14:08:04.850Z,100777.47
2022-11-30T14:10:38.191Z,100775.31
2022-11-30T14:13:05.596Z,100780.75
2022-11-30T14:16:00.465Z,100779.44
2022-11-30T14:18:29.960Z,100779.84
2022-11-30T14:21:18.125Z,100782.78
2022-11-30T14:23:53.463Z,100788.94
2022-11-30T14:26:27.455Z,100797.13
2022-11-30T14:28:57.651Z,100796.56
2022-11-30T14:31:31.655Z,100797.34
2022-11-30T14:34:02.871Z,100792.69
2022-11-30T14:36:40.699Z,100801.56
2022-11-30T14:39:35.166Z,100797.44
2022-11-30T14:42:03.677Z,100803.31
2022-11-30T14:44:35.535Z,100799.56
2022-11-30T14:47:20.568Z,100797.09
2022-11-30T14:49:51.749Z,100799.69
2022-11-30T14:52:46.224Z,100805.97
2022-11-30T14:55:40.464Z,100800.88
2022-11-30T14:58:14.702Z,100801.97
2022-11-30T15:00:43.547Z,100803.66
2022-11-30T15:03:25.605Z,100809.88
2022-11-30T15:05:58.649Z,100819.00
2022-11-30T15:08:32.811Z,100811.06
2022-11-30T15:11:07.189Z,100820.81
2022-11-30T15:13:37.578Z,100820.06
2022-11-30T15:16:09.646Z,100813.03
2022-11-30T15:18:38.933Z,100815.19
2022-11-30T15:21:17.196Z,100820.41
2022-11-30T15:23:49.456Z,100820.59
2022-11-30T15:26:27.488Z,100812.38
2022-11-30T15:28:57.976Z,100810.56
2022-11-30T15:31:26.380Z,100815.19
2022-11-30T15:33:52.828Z,100812.41
2022-11-30T15:36:32.473Z,100825.81
2022-11-30T15:39:04.361Z,100816.06
2022-11-30T15:41:33.103Z,100826.16
2022-11-30T15:43:59.707Z,100817.09
2022-11-30T15:46:33.890Z,100818.88
2022-11-30T15:49:17.245Z,100821.34
2022-11-30T15:51:46.651Z,100826.00
2022-11-30T15:54:13.838Z,100825.03
2022-11-30T15:56:40.235Z,100824.16
2022-11-30T15:59:20.093Z,100830.31
2022-11-30T16:02:14.155Z,100826.78
2022-11-30T16:04:58.601Z,100833.00
2022-11-30T16:07:28.474Z,100831.16
2022-11-30T16:10:15.119Z,100828.47
2022-11-30T16:12:43.869Z,100831.19
2022-11-30T16:15:43.384Z,100832.75
2022-11-30T16:18:17.363Z,100837.41
2022-11-30T16:20:46.048Z,100831.16
2022-11-30T16:23:15.184Z,100832.06
2022-11-30T16:25:43.380Z,100835.78
2022-11-30T16:28:11.559Z,100831.50
2022-11-30T16:30:39.800Z,100839.22
2022-11-30T16:33:06.285Z,100837.34
2022-11-30T16:35:40.348Z,100835.69
2022-11-30T16:38:06.870Z,100840.97
2022-11-30T16:40:38.555Z,100844.53
2022-11-30T16:43:05.797Z,100841.97
2022-11-30T16:45:37.085Z,100848.31
2022-11-30T16:48:04.483Z,100851.84
2022-11-30T16:50:34.720Z,100854.34
2022-11-30T16:53:02.424Z,100868.50
2022-11-30T16:55:35.009Z,100865.69
2022-11-30T16:58:01.797Z,100863.81
2022-11-30T17:00:28.288Z,100875.44
2022-11-30T17:03:00.393Z,100869.25
2022-11-30T17:05:27.249Z,100867.59
2022-11-30T17:07:54.248Z,100875.56
2022-11-30T17:10:21.566Z,100870.34
2022-11-30T17:12:48.085Z,100880.88
2022-11-30T17:15:17.712Z,100879.06
2022-11-30T17:17:44.567Z,100882.72
2022-11-30T17:20:13.042Z,100887.06
2022-11-30T17:22:39.828Z,100884.41
2022-11-30T17:25:11.255Z,100879.06
2022-11-30T17:27:37.659Z,100879.94
2022-11-30T17:30:05.199Z,100877.34
2022-11-30T17:32:31.602Z,100886.16
2022-11-30T17:34:58.008Z,100886.13
2022-11-30T17:37:24.572Z,100887.00
2022-11-30T17:39:50.998Z,100878.84
2022-11-30T17:42:17.457Z,100880.66
2022-11-30T17:44:43.887Z,100892.22
2022-11-30T17:47:10.414Z,100887.88
2022-11-30T17:49:36.918Z,100894.78
2022-11-30T17:52:03.623Z,100899.41
2022-11-30T17:54:30.013Z,100892.03
2022-11-30T17:56:56.512Z,100900.03
2022-11-30T17:59:22.843Z,100900.13
2022-11-30T18:01:49.302Z,100891.28
2022-11-30T18:04:16.085Z,100897.56
2022-11-30T18:06:42.648Z,100895.00
2022-11-30T18:09:09.127Z,100904.66
2022-11-30T18:11:35.596Z,100906.34
2022-11-30T18:14:03.880Z,100907.31
2022-11-30T18:16:37.038Z,100915.88
2022-11-30T18:19:12.370Z,100910.56
2022-11-30T18:21:40.495Z,100909.53
2022-11-30T18:24:07.527Z,100908.69
2022-11-30T18:26:35.505Z,100908.69
2022-11-30T18:29:02.364Z,100912.03
2022-11-30T18:31:30.755Z,100911.13
2022-11-30T18:34:02.954Z,100915.81
2022-11-30T18:36:30.359Z,100922.06
2022-11-30T18:38:57.073Z,100917.34
2022-11-30T18:41:26.022Z,100920.28
2022-11-30T18:43:56.162Z,100919.44
2022-11-30T18:46:22.795Z,100921.06
2022-11-30T18:48:50.405Z,100918.38
2022-11-30T18:51:21.046Z,100922.00
2022-11-30T18:53:47.564Z,100923.72
2022-11-30T18:56:19.479Z,100915.00
2022-11-30T18:58:46.879Z,100926.50
2022-11-30T19:01:14.637Z,100923.56
2022-11-30T19:03:41.754Z,100927.03
2022-11-30T19:06:09.491Z,100928.13
2022-11-30T19:08:36.867Z,100931.63
2022-11-30T19:11:08.295Z,100937.63
2022-11-30T19:13:35.178Z,100935.16
2022-11-30T19:16:06.473Z,100939.59
2022-11-30T19:18:33.440Z,100938.84
2022-11-30T19:20:59.985Z,100944.06
2022-11-30T19:23:26.568Z,100940.78
2022-11-30T19:25:58.599Z,100942.63
2022-11-30T19:28:25.012Z,100943.28
2022-11-30T19:30:51.374Z,100949.06
2022-11-30T19:33:17.859Z,100939.38
2022-11-30T19:35:44.247Z,100947.88
2022-11-30T19:38:10.609Z,100946.06
2022-11-30T19:40:37.939Z,100948.16
2022-11-30T19:43:04.915Z,100949.13
2022-11-30T19:45:31.279Z,100946.50
2022-11-30T19:47:57.674Z,100942.91
2022-11-30T19:50:24.383Z,100953.56
2022-11-30T19:52:50.842Z,100950.09
2022-11-30T19:55:17.403Z,100951.84
2022-11-30T19:57:44.670Z,100954.56
2022-11-30T20:00:11.900Z,100956.34
2022-11-30T20:02:38.313Z,100956.13
2022-11-30T20:05:05.060Z,100964.84
2022-11-30T20:07:31.674Z,100955.13
2022-11-30T20:09:58.080Z,100960.44
2022-11-30T20:12:24.432Z,100970.16
2022-11-30T20:14:50.986Z,100963.94
2022-11-30T20:17:17.602Z,100952.38
2022-11-30T20:19:44.007Z,100963.84
2022-11-30T20:22:10.452Z,100954.19
2022-11-30T20:24:37.024Z,100964.81
2022-11-30T20:27:06.512Z,100960.22
2022-11-30T20:29:33.017Z,100969.88
2022-11-30T20:31:59.395Z,100961.03
2022-11-30T20:34:28.552Z,100959.88
2022-11-30T20:36:57.639Z,100962.66
2022-11-30T20:39:24.051Z,100967.91
2022-11-30T20:41:50.371Z,100965.59
2022-11-30T20:44:16.837Z,100968.38
2022-11-30T20:46:43.712Z,100972.63
2022-11-30T20:49:18.836Z,100972.56
2022-11-30T20:51:46.729Z,100971.69
2022-11-30T20:54:13.597Z,100971.25
2022-11-30T20:56:40.983Z,100974.19
2022-11-30T20:59:15.896Z,100969.69
2022-11-30T21:01:45.005Z,100974.25
2022-11-30T21:04:11.783Z,100978.00
2022-11-30T21:06:38.519Z,100975.41
2022-11-30T21:09:04.906Z,100978.97
2022-11-30T21:11:31.432Z,100981.63
2022-11-30T21:13:58.681Z,100979.03
2022-11-30T21:16:28.822Z,100978.97
2022-11-30T21:18:57.031Z,100978.03
2022-11-30T21:21:25.187Z,100977.22
2022-11-30T21:23:52.208Z,100973.66
2022-11-30T21:26:20.755Z,100973.72
2022-11-30T21:28:48.939Z,100974.59
2022-11-30T21:31:15.916Z,100978.16
2022-11-30T21:33:45.848Z,100976.28
2022-11-30T21:36:18.709Z,100978.75
2022-11-30T21:38:45.161Z,100975.31
2022-11-30T21:41:12.959Z,100976.06
2022-11-30T21:43:40.044Z,100978.84
2022-11-30T21:46:10.145Z,100977.06
2022-11-30T21:48:39.879Z,100979.88
2022-11-30T21:51:07.299Z,100978.94
2022-11-30T21:53:37.651Z,100982.50
2022-11-30T21:56:06.399Z,100978.97
2022-11-30T21:58:33.596Z,100977.25
2022-11-30T22:01:03.319Z,100979.94
2022-11-30T22:03:30.315Z,100979.03
2022-11-30T22:06:00.708Z,100983.47
2022-11-30T22:08:27.985Z,100981.75
2022-11-30T22:10:54.587Z,100977.31
2022-11-30T22:13:21.272Z,100983.44
2022-11-30T22:15:47.659Z,100987.78
2022-11-30T22:18:14.164Z,100987.94
2022-11-30T22:20:40.707Z,100974.75
2022-11-30T22:23:07.037Z,100982.66
2022-11-30T22:25:33.445Z,100982.66
2022-11-30T22:27:59.823Z,100976.47
2022-11-30T22:30:26.223Z,100971.25
2022-11-30T22:32:52.747Z,100979.25
2022-11-30T22:35:19.120Z,100979.25
2022-11-30T22:37:45.488Z,100980.94
2022-11-30T22:40:12.441Z,100979.97
2022-11-30T22:42:38.775Z,100975.66
2022-11-30T22:45:05.689Z,100985.53
2022-11-30T22:47:32.083Z,100979.34
2022-11-30T22:49:58.488Z,100981.03
2022-11-30T22:52:42.319Z,100970.44
2022-11-30T22:55:11.350Z,100973.16
2022-11-30T22:57:37.855Z,100975.88
2022-11-30T23:00:05.421Z,100971.41
2022-11-30T23:02:31.834Z,100974.03
2022-11-30T23:04:58.230Z,100974.84
2022-11-30T23:07:28.951Z,100972.25
2022-11-30T23:09:58.344Z,100973.13
2022-11-30T23:12:50.940Z,100968.72
2022-11-30T23:15:11.309Z,100972.25
2022-11-30T23:17:37.690Z,100966.06
2022-11-30T23:20:04.711Z,100974.75
2022-11-30T23:22:31.203Z,100970.44
2022-11-30T23:24:57.527Z,100963.41
2022-11-30T23:27:23.920Z,100966.06
2022-11-30T23:29:50.386Z,100976.59
2022-11-30T23:32:17.034Z,100968.47
2022-11-30T23:34:46.868Z,100972.03
2022-11-30T23:37:15.800Z,100970.31
2022-11-30T23:39:42.188Z,100959.75
2022-11-30T23:42:08.571Z,100955.44
2022-11-30T23:44:34.973Z,100958.06
2022-11-30T23:47:01.433Z,100958.97
2022-11-30T23:49:27.848Z,100958.97
2022-11-30T23:51:56.343Z,100954.31
2022-11-30T23:54:22.713Z,100956.75
2022-11-30T23:56:49.173Z,100949.75
2022-11-30T23:59:15.644Z,100957.94
